Time;durP1;ratioP1;P1;durP2;ratioP2;P2;SDS_P1;SDS_P2;PMS_P1;PMS_P2;Temp;Humidity;BMP_temperature;BMP_pressure;BME280_temperature;BME280_humidity;BME280_pressure;Samples;Min_cycle;Max_cycle;Signal;HPM_P1;HPM_P2
2022/05/21 00:01:41;;;;;;;4.80;2.05;;;24.30;99.90;;;;;;5036689;28;20255;-78
2022/05/21 00:04:07;;;;;;;11.57;1.98;;;24.40;99.90;;;;;;5037469;28;20191;-79
2022/05/21 00:06:34;;;;;;;3.85;2.00;;;24.40;99.90;;;;;;5037067;28;20193;-79
2022/05/21 00:09:01;;;;;;;5.50;2.15;;;24.30;99.90;;;;;;5037414;28;20290;-79
2022/05/21 00:11:28;;;;;;;4.30;2.22;;;24.40;99.90;;;;;;5037491;28;20203;-79
2022/05/21 00:13:56;;;;;;;6.72;2.08;;;24.30;99.90;;;;;;5037833;28;20197;-79
2022/05/21 00:16:24;;;;;;;2.97;1.85;;;24.30;99.90;;;;;;5037463;28;20235;-79
2022/05/21 00:18:51;;;;;;;4.50;1.80;;;24.40;99.90;;;;;;5037748;28;20630;-79
2022/05/21 00:21:19;;;;;;;6.50;2.35;;;24.30;99.90;;;;;;5036865;28;20292;-80
2022/05/21 00:23:45;;;;;;;3.55;1.70;;;24.30;99.90;;;;;;5037755;28;20201;-80
2022/05/21 00:26:15;;;;;;;1.75;1.63;;;24.30;99.90;;;;;;5037125;28;20192;-80
2022/05/21 00:28:45;;;;;;;7.45;2.10;;;24.30;99.90;;;;;;5036678;28;20201;-80
2022/05/21 00:31:14;;;;;;;1.95;1.67;;;24.30;99.90;;;;;;5037190;28;20272;-80
2022/05/21 00:33:44;;;;;;;4.72;1.40;;;24.30;99.90;;;;;;5037142;28;20272;-80
2022/05/21 00:36:11;;;;;;;2.45;1.42;;;24.30;99.90;;;;;;5037604;28;20323;-80
2022/05/21 00:38:40;;;;;;;3.00;1.65;;;24.30;99.90;;;;;;5037443;28;20293;-80
2022/05/21 00:41:09;;;;;;;2.00;1.80;;;24.30;99.90;;;;;;5037046;28;20236;-80
2022/05/21 00:43:43;;;;;;;3.40;1.83;;;24.30;99.90;;;;;;5036882;28;20225;-81
2022/05/21 00:46:14;;;;;;;3.25;1.67;;;24.30;99.90;;;;;;5037381;28;20207;-81
2022/05/21 00:48:43;;;;;;;6.38;1.95;;;24.30;99.90;;;;;;5037260;28;20235;-81
2022/05/21 00:51:15;;;;;;;1.58;1.50;;;24.30;99.90;;;;;;5037456;28;20211;-81
2022/05/21 00:53:44;;;;;;;2.45;1.70;;;24.30;99.90;;;;;;5037487;28;20191;-80
2022/05/21 00:56:12;;;;;;;6.68;1.67;;;24.30;99.90;;;;;;5037025;28;20216;-80
2022/05/21 01:01:27;;;;;;;2.58;1.65;;;24.30;99.90;;;;;;5037046;28;20176;-80
2022/05/21 01:03:55;;;;;;;4.85;1.90;;;24.30;99.90;;;;;;5036272;28;20189;-79
2022/05/21 01:06:22;;;;;;;3.47;1.60;;;24.30;99.90;;;;;;5036485;28;20224;-79
2022/05/21 01:08:49;;;;;;;1.70;1.60;;;24.30;99.90;;;;;;5036218;28;20203;-79
2022/05/21 01:11:19;;;;;;;2.78;1.88;;;24.30;99.90;;;;;;5035799;28;20197;-79
2022/05/21 01:13:48;;;;;;;11.25;1.85;;;24.40;99.90;;;;;;5035962;28;20201;-79
2022/05/21 01:16:15;;;;;;;4.57;1.77;;;24.30;99.90;;;;;;5036351;28;20325;-79
2022/05/21 01:18:43;;;;;;;3.65;1.83;;;24.30;99.90;;;;;;5036361;28;20223;-80
2022/05/21 01:21:11;;;;;;;5.13;1.83;;;24.30;99.90;;;;;;5036397;28;20197;-80
2022/05/21 01:23:39;;;;;;;4.88;2.10;;;24.30;99.90;;;;;;5036415;28;20252;-80
2022/05/21 01:26:14;;;;;;;5.80;1.85;;;24.30;99.90;;;;;;5036209;28;20232;-80
2022/05/21 01:28:41;;;;;;;2.95;1.92;;;24.30;99.90;;;;;;5036470;28;20192;-80
2022/05/21 01:31:09;;;;;;;4.47;1.45;;;24.30;99.90;;;;;;5036064;28;20204;-80
2022/05/21 01:33:38;;;;;;;3.47;1.60;;;24.30;99.90;;;;;;5036232;28;20312;-80
2022/05/21 01:36:07;;;;;;;2.88;1.92;;;24.30;99.90;;;;;;5035425;28;20217;-79
2022/05/21 01:38:35;;;;;;;2.25;2.00;;;24.30;99.90;;;;;;5035441;28;20203;-79
2022/05/21 01:41:03;;;;;;;3.13;1.60;;;24.30;99.90;;;;;;5034908;28;20197;-79
2022/05/21 01:46:17;;;;;;;9.55;1.90;;;24.30;99.90;;;;;;5034398;28;20303;-79
2022/05/21 01:48:44;;;;;;;3.22;2.05;;;24.30;99.90;;;;;;5034877;28;20196;-79
2022/05/21 01:51:11;;;;;;;7.05;1.83;;;24.30;99.90;;;;;;5034650;28;20735;-79
2022/05/21 01:53:40;;;;;;;4.05;1.88;;;24.30;99.90;;;;;;5034728;28;20228;-79
2022/05/21 01:56:09;;;;;;;2.95;1.80;;;24.30;99.90;;;;;;5034750;28;20220;-79
2022/05/21 01:58:37;;;;;;;3.20;1.63;;;24.30;99.90;;;;;;5034934;28;20606;-79
2022/05/21 02:01:05;;;;;;;5.07;2.05;;;24.30;99.90;;;;;;5034941;28;20755;-79
2022/05/21 02:03:31;;;;;;;2.58;1.75;;;24.30;99.90;;;;;;5034542;28;20255;-79
2022/05/21 02:05:58;;;;;;;1.25;1.23;;;24.30;99.90;;;;;;5034313;28;20315;-79
2022/05/21 02:08:25;;;;;;;3.85;1.83;;;24.30;99.90;;;;;;5034475;28;20232;-79
2022/05/21 02:10:52;;;;;;;1.63;1.60;;;24.30;99.90;;;;;;5040738;28;20275;-79
2022/05/21 02:13:24;;;;;;;6.05;1.77;;;24.30;99.90;;;;;;5039130;28;20362;-79
2022/05/21 02:15:51;;;;;;;5.60;1.70;;;24.30;99.90;;;;;;5035737;28;20296;-79
2022/05/21 02:18:18;;;;;;;4.47;2.00;;;24.30;99.90;;;;;;5035643;28;20204;-79
2022/05/21 02:20:48;;;;;;;7.03;2.08;;;24.30;99.90;;;;;;5035074;28;20204;-79
2022/05/21 02:23:15;;;;;;;1.83;1.70;;;24.30;99.90;;;;;;5034906;28;20607;-80
2022/05/21 02:25:42;;;;;;;4.80;1.95;;;24.30;99.90;;;;;;5034772;28;20288;-80
2022/05/21 02:28:09;;;;;;;4.55;1.83;;;24.30;99.90;;;;;;5034852;28;20244;-80
2022/05/21 02:30:37;;;;;;;4.95;1.70;;;24.30;99.90;;;;;;5034406;28;20232;-80
2022/05/21 02:33:04;;;;;;;3.38;1.70;;;24.30;99.90;;;;;;5034364;28;20259;-80
2022/05/21 02:35:31;;;;;;;4.47;1.30;;;24.30;99.90;;;;;;5034242;28;20303;-80
2022/05/21 02:40:42;;;;;;;3.63;1.73;;;24.30;99.90;;;;;;5036671;28;20180;-79
2022/05/21 02:43:09;;;;;;;5.15;1.63;;;24.30;99.90;;;;;;5033793;28;20221;-79
2022/05/21 02:45:37;;;;;;;3.47;1.38;;;24.30;99.90;;;;;;5037789;28;20283;-79
2022/05/21 02:48:05;;;;;;;3.90;1.70;;;24.30;99.90;;;;;;5038008;28;20228;-79
2022/05/21 02:50:34;;;;;;;4.97;1.70;;;24.30;99.90;;;;;;5037872;28;20750;-79
2022/05/21 02:53:01;;;;;;;7.40;1.80;;;24.30;99.90;;;;;;5038266;28;20670;-80
2022/05/21 02:55:28;;;;;;;12.23;2.10;;;24.30;99.90;;;;;;5037679;28;20667;-80
2022/05/21 02:57:55;;;;;;;2.55;1.52;;;24.30;99.90;;;;;;5040445;28;20197;-80
2022/05/21 03:00:24;;;;;;;7.90;2.13;;;24.20;99.90;;;;;;5038501;28;20679;-79
2022/05/21 03:02:53;;;;;;;4.78;1.55;;;24.20;99.90;;;;;;5038355;28;20224;-79
2022/05/21 03:05:20;;;;;;;6.97;1.83;;;24.30;99.90;;;;;;5038659;28;20297;-79
2022/05/21 03:07:49;;;;;;;5.88;2.10;;;24.30;99.90;;;;;;5039424;28;20239;-79
2022/05/21 03:10:21;;;;;;;6.03;1.80;;;24.30;99.90;;;;;;5041551;28;20295;-79
2022/05/21 03:12:48;;;;;;;2.60;1.77;;;24.20;99.90;;;;;;5040867;28;20221;-79
2022/05/21 03:15:16;;;;;;;5.93;1.80;;;24.30;99.90;;;;;;5039327;28;20227;-79
2022/05/21 03:17:42;;;;;;;3.45;1.30;;;24.20;99.90;;;;;;5040563;28;20217;-80
2022/05/21 03:20:13;;;;;;;2.65;1.60;;;24.20;99.90;;;;;;5039486;28;20288;-80
2022/05/21 03:22:40;;;;;;;3.22;1.48;;;24.30;99.90;;;;;;5040118;28;20226;-80
2022/05/21 03:25:08;;;;;;;2.15;1.50;;;24.30;99.90;;;;;;5039636;28;20291;-80
2022/05/21 03:27:35;;;;;;;2.15;1.40;;;24.20;99.90;;;;;;5039912;28;20260;-80
2022/05/21 03:30:03;;;;;;;4.40;1.30;;;24.20;99.90;;;;;;5039327;28;20268;-80
2022/05/21 03:32:30;;;;;;;5.47;1.63;;;24.20;99.90;;;;;;5038549;28;20224;-80
2022/05/21 03:34:57;;;;;;;6.30;1.42;;;24.20;99.90;;;;;;5039766;28;20684;-80
2022/05/21 03:37:25;;;;;;;10.07;1.50;;;24.20;99.90;;;;;;5039015;28;20252;-79
2022/05/21 03:39:52;;;;;;;2.50;1.25;;;24.30;99.90;;;;;;5038097;28;20201;-79
2022/05/21 03:42:19;;;;;;;4.63;1.50;;;24.30;99.90;;;;;;5039638;28;20239;-79
2022/05/21 03:44:46;;;;;;;3.97;1.40;;;24.30;99.90;;;;;;5039424;28;20247;-79
2022/05/21 03:47:14;;;;;;;6.32;1.52;;;24.30;99.90;;;;;;5038252;28;20208;-79
2022/05/21 03:49:41;;;;;;;5.10;1.77;;;24.30;99.90;;;;;;5037934;28;20205;-79
2022/05/21 03:52:08;;;;;;;5.13;1.70;;;24.30;99.90;;;;;;5038450;28;20595;-80
2022/05/21 03:54:36;;;;;;;4.55;1.60;;;24.20;99.90;;;;;;5038911;28;20739;-79
2022/05/21 03:57:05;;;;;;;6.30;1.30;;;24.30;99.90;;;;;;5037529;28;20307;-80
2022/05/21 03:59:33;;;;;;;2.85;1.17;;;24.30;99.90;;;;;;5037390;28;20232;-79
2022/05/21 04:02:01;;;;;;;3.83;1.77;;;24.20;99.90;;;;;;5036784;28;20232;-79
2022/05/21 04:04:28;;;;;;;1.38;1.10;;;24.20;99.90;;;;;;5037966;28;20201;-79
2022/05/21 04:06:54;;;;;;;3.00;1.42;;;24.20;99.90;;;;;;5037234;28;20196;-79
2022/05/21 04:09:21;;;;;;;3.60;1.75;;;24.20;99.90;;;;;;5038885;28;20268;-79
2022/05/21 04:11:50;;;;;;;3.25;1.52;;;24.20;99.90;;;;;;5038493;28;20647;-79
2022/05/21 04:14:17;;;;;;;1.20;1.15;;;24.20;99.90;;;;;;5039024;28;20304;-79
2022/05/21 04:16:43;;;;;;;5.68;1.27;;;24.20;99.90;;;;;;5038722;28;20333;-79
2022/05/21 04:19:10;;;;;;;3.90;1.65;;;24.30;99.90;;;;;;5038094;28;20695;-79
2022/05/21 04:21:37;;;;;;;1.67;1.30;;;24.20;99.90;;;;;;5038115;28;20316;-79
2022/05/21 04:24:05;;;;;;;3.70;1.30;;;24.20;99.90;;;;;;5036986;28;20201;-79
2022/05/21 04:26:32;;;;;;;2.80;1.33;;;24.20;99.90;;;;;;5036503;28;20192;-79
2022/05/21 04:29:00;;;;;;;1.38;1.27;;;24.20;99.90;;;;;;5037364;28;20565;-79
2022/05/21 04:31:27;;;;;;;3.78;1.73;;;24.20;99.90;;;;;;5038349;28;20277;-79
2022/05/21 04:33:54;;;;;;;4.00;1.45;;;24.20;99.90;;;;;;5038540;28;20219;-79
2022/05/21 04:36:21;;;;;;;1.90;1.13;;;24.20;99.90;;;;;;5038311;28;20312;-79
2022/05/21 04:38:50;;;;;;;1.45;1.35;;;24.20;99.90;;;;;;5038161;28;20201;-79
2022/05/21 04:41:17;;;;;;;3.17;1.50;;;24.20;99.90;;;;;;5038416;28;20243;-80
2022/05/21 04:43:44;;;;;;;6.32;1.50;;;24.20;99.90;;;;;;5038184;28;20207;-80
2022/05/21 04:46:14;;;;;;;3.85;1.50;;;24.20;99.90;;;;;;5036773;28;20231;-79
2022/05/21 04:48:42;;;;;;;6.63;1.67;;;24.30;99.90;;;;;;5037601;28;20217;-79
2022/05/21 04:51:09;;;;;;;7.30;1.23;;;24.20;99.90;;;;;;5037771;28;20672;-80
2022/05/21 04:53:36;;;;;;;5.82;1.33;;;24.20;99.90;;;;;;5038273;28;20259;-80
2022/05/21 04:56:03;;;;;;;3.40;1.60;;;24.20;99.90;;;;;;5035673;28;20197;-77
2022/05/21 04:58:31;;;;;;;5.53;1.30;;;24.20;99.90;;;;;;5035734;28;20197;-78
2022/05/21 05:00:58;;;;;;;7.63;1.83;;;24.20;99.90;;;;;;5034989;28;20201;-78
2022/05/21 05:03:26;;;;;;;5.10;1.13;;;24.20;99.90;;;;;;5034808;28;20264;-78
2022/05/21 05:05:53;;;;;;;2.83;1.30;;;24.20;99.90;;;;;;5035569;28;20243;-78
2022/05/21 05:08:22;;;;;;;3.15;1.40;;;24.20;99.90;;;;;;5036721;28;20205;-79
2022/05/21 05:10:49;;;;;;;5.53;1.52;;;24.20;99.90;;;;;;5037390;28;20295;-79
2022/05/21 05:13:17;;;;;;;8.88;1.73;;;24.20;99.90;;;;;;5037827;28;20221;-79
2022/05/21 05:15:46;;;;;;;10.05;1.85;;;24.20;99.90;;;;;;5036765;28;20295;-79
2022/05/21 05:18:15;;;;;;;7.05;1.50;;;24.20;99.90;;;;;;5035449;28;20221;-79
2022/05/21 05:20:43;;;;;;;6.38;1.58;;;24.20;99.90;;;;;;5035696;28;20207;-80
2022/05/21 05:23:11;;;;;;;2.05;1.25;;;24.20;99.90;;;;;;5035941;28;20226;-79
2022/05/21 05:25:38;;;;;;;6.35;1.33;;;24.20;99.90;;;;;;5035952;28;20287;-79
2022/05/21 05:28:12;;;;;;;1.40;1.08;;;24.20;99.90;;;;;;5035437;28;20291;-79
2022/05/21 05:30:39;;;;;;;6.70;1.25;;;24.20;99.90;;;;;;5035732;28;20191;-79
2022/05/21 05:33:06;;;;;;;17.77;2.35;;;24.20;99.90;;;;;;5035631;28;20256;-79
2022/05/21 05:35:33;;;;;;;11.93;1.90;;;24.20;99.90;;;;;;5035136;28;20211;-79
2022/05/21 05:38:05;;;;;;;12.93;1.52;;;24.20;99.90;;;;;;5034915;28;20259;-79
2022/05/21 05:40:33;;;;;;;5.22;1.50;;;24.30;99.90;;;;;;5034626;28;20551;-79
2022/05/21 05:43:01;;;;;;;3.92;1.10;;;24.20;99.90;;;;;;5034519;28;20252;-79
2022/05/21 05:45:28;;;;;;;2.88;1.00;;;24.20;99.90;;;;;;5036141;28;20208;-79
2022/05/21 05:47:55;;;;;;;9.05;1.70;;;24.20;99.90;;;;;;5036103;28;20203;-80
2022/05/21 05:50:22;;;;;;;2.22;1.25;;;24.20;99.90;;;;;;5036226;28;20291;-80
2022/05/21 05:52:48;;;;;;;3.92;1.27;;;24.20;99.90;;;;;;5036235;28;20224;-80
2022/05/21 05:55:18;;;;;;;3.60;1.33;;;24.20;99.90;;;;;;5036549;28;20236;-80
2022/05/21 05:57:49;;;;;;;10.65;1.70;;;24.20;99.90;;;;;;5036445;28;20577;-80
2022/05/21 06:00:16;;;;;;;3.35;1.17;;;24.20;99.90;;;;;;5035200;28;20193;-79
2022/05/21 06:03:01;;;;;;;1.67;1.17;;;24.20;99.90;;;;;;5035482;28;20399;-79
2022/05/21 06:05:31;;;;;;;7.38;1.23;;;24.20;99.90;;;;;;5034856;28;20216;-79
2022/05/21 06:08:00;;;;;;;3.05;1.20;;;24.20;99.90;;;;;;5034938;28;20327;-79
2022/05/21 06:10:34;;;;;;;3.65;1.75;;;24.20;99.90;;;;;;5035301;28;20760;-79
2022/05/21 06:13:02;;;;;;;2.17;1.15;;;24.20;99.90;;;;;;5035016;28;20255;-79
2022/05/21 06:15:29;;;;;;;3.97;1.40;;;24.20;99.90;;;;;;5034404;28;20264;-79
2022/05/21 06:17:56;;;;;;;7.07;1.35;;;24.20;99.90;;;;;;5033795;28;20224;-79
2022/05/21 06:20:26;;;;;;;3.80;1.30;;;24.20;99.90;;;;;;5034635;28;20201;-79
2022/05/21 06:22:54;;;;;;;4.97;1.33;;;24.20;99.90;;;;;;5035037;28;20227;-80
2022/05/21 06:25:22;;;;;;;2.05;0.85;;;24.20;99.90;;;;;;5035861;28;20268;-80
2022/05/21 06:27:52;;;;;;;1.42;1.33;;;24.20;99.90;;;;;;5033418;28;20264;-77
2022/05/21 06:30:23;;;;;;;10.80;1.73;;;24.20;99.90;;;;;;5033561;28;20203;-77
2022/05/21 06:32:50;;;;;;;5.15;1.83;;;24.20;99.90;;;;;;5033545;28;20231;-77
2022/05/21 06:35:19;;;;;;;15.88;2.08;;;24.20;99.90;;;;;;5033525;28;20308;-78
2022/05/21 06:37:46;;;;;;;7.43;1.48;;;24.20;99.90;;;;;;5033557;28;20216;-77
2022/05/21 06:40:15;;;;;;;9.00;1.63;;;24.20;99.90;;;;;;5033779;28;20211;-76
2022/05/21 06:42:42;;;;;;;22.13;2.22;;;24.20;99.90;;;;;;5033107;28;20761;-76
2022/05/21 06:45:11;;;;;;;17.52;2.20;;;24.20;99.90;;;;;;5033420;28;20239;-75
2022/05/21 06:47:38;;;;;;;12.50;1.50;;;24.20;99.90;;;;;;5033656;28;20284;-76
2022/05/21 06:50:06;;;;;;;5.15;1.40;;;24.20;99.90;;;;;;5033369;28;20235;-76
2022/05/21 06:52:35;;;;;;;13.60;2.20;;;24.20;99.90;;;;;;5033203;28;20659;-77
2022/05/21 06:55:02;;;;;;;30.25;3.40;;;24.20;99.90;;;;;;5033673;28;20215;-78
2022/05/21 06:57:29;;;;;;;8.18;1.73;;;24.20;99.90;;;;;;5033095;28;20696;-77
2022/05/21 06:59:56;;;;;;;12.95;1.85;;;24.20;99.90;;;;;;5033391;28;20208;-77
2022/05/21 07:02:24;;;;;;;8.15;1.55;;;24.20;99.90;;;;;;5033042;28;20235;-76
2022/05/21 07:07:43;;;;;;;12.38;1.70;;;24.20;99.90;;;;;;5033362;28;20184;-75
2022/05/21 07:10:13;;;;;;;17.88;1.85;;;24.20;99.90;;;;;;5033303;28;20238;-75
2022/05/21 07:12:39;;;;;;;10.07;1.70;;;24.20;99.90;;;;;;5033145;28;20221;-75
2022/05/21 07:15:07;;;;;;;14.77;1.98;;;24.10;99.90;;;;;;5033200;28;20247;-75
2022/05/21 07:17:36;;;;;;;11.07;1.70;;;24.20;99.90;;;;;;5033131;28;20307;-77
2022/05/21 07:20:04;;;;;;;11.32;1.77;;;24.10;99.90;;;;;;5033302;28;20231;-77
2022/05/21 07:22:31;;;;;;;9.85;1.65;;;24.20;99.90;;;;;;5033911;28;20221;-77
2022/05/21 07:24:59;;;;;;;9.32;1.67;;;24.20;99.90;;;;;;5033049;28;20197;-77
2022/05/21 07:27:27;;;;;;;9.27;1.38;;;24.20;99.90;;;;;;5033043;28;20224;-77
2022/05/21 07:29:54;;;;;;;3.50;1.05;;;24.10;99.90;;;;;;5034554;28;20200;-76
2022/05/21 07:32:23;;;;;;;1.02;0.93;;;24.10;99.90;;;;;;5037084;28;20252;-78
2022/05/21 07:34:57;;;;;;;4.03;1.27;;;24.10;99.90;;;;;;5038170;28;20228;-79
2022/05/21 07:37:24;;;;;;;7.18;1.08;;;24.10;99.90;;;;;;5037749;28;20595;-78
2022/05/21 07:39:51;;;;;;;4.97;1.30;;;24.10;99.90;;;;;;5037952;28;20205;-78
2022/05/21 07:42:19;;;;;;;5.38;1.42;;;24.10;99.90;;;;;;5041534;28;20254;-80
2022/05/21 07:44:46;;;;;;;20.58;1.67;;;24.10;99.90;;;;;;5040512;28;20287;-78
2022/05/21 07:47:13;;;;;;;5.70;1.50;;;24.00;99.90;;;;;;5040396;28;20200;-77
2022/05/21 07:49:41;;;;;;;11.32;1.90;;;24.00;99.90;;;;;;5042662;28;20207;-80
2022/05/21 07:52:10;;;;;;;6.70;1.30;;;24.10;99.90;;;;;;5042532;28;20228;-77
2022/05/21 07:54:38;;;;;;;7.47;0.90;;;24.10;99.90;;;;;;5039751;28;20201;-78
2022/05/21 07:57:05;;;;;;;5.18;1.42;;;24.00;99.90;;;;;;5037213;28;20200;-78
2022/05/21 07:59:32;;;;;;;2.50;0.82;;;24.10;99.90;;;;;;5037712;28;20638;-78
2022/05/21 08:01:59;;;;;;;6.13;1.25;;;24.00;99.90;;;;;;5036752;28;20795;-78
2022/05/21 08:04:26;;;;;;;11.00;1.80;;;24.00;99.90;;;;;;5037344;28;20212;-79
2022/05/21 08:06:53;;;;;;;11.43;1.92;;;24.00;99.90;;;;;;5036689;28;20211;-77
2022/05/21 08:09:22;;;;;;;11.75;1.63;;;24.00;99.90;;;;;;5036058;28;20226;-77
2022/05/21 08:11:49;;;;;;;12.32;2.20;;;24.00;99.90;;;;;;5035865;28;20707;-77
2022/05/21 08:14:18;;;;;;;19.88;1.60;;;24.00;99.90;;;;;;5042111;28;20200;-80
2022/05/21 08:16:45;;;;;;;12.98;2.22;;;24.00;99.90;;;;;;5047355;28;20613;-80
2022/05/21 08:19:12;;;;;;;13.27;2.10;;;24.00;99.90;;;;;;5046525;28;20213;-80
2022/05/21 08:21:40;;;;;;;16.40;2.40;;;24.00;99.90;;;;;;5048391;28;20227;-80
2022/05/21 08:27:00;;;;;;;16.17;1.90;;;24.10;99.90;;;;;;5050189;28;20184;-80
2022/05/21 08:29:29;;;;;;;10.18;1.92;;;24.10;99.90;;;;;;5049213;28;20575;-80
2022/05/21 08:31:56;;;;;;;6.00;1.80;;;24.00;99.90;;;;;;5050258;28;20248;-80
2022/05/21 08:34:24;;;;;;;12.43;2.03;;;24.10;99.90;;;;;;5050396;28;20204;-80
2022/05/21 08:36:51;;;;;;;14.27;2.10;;;24.10;99.90;;;;;;5049968;28;20235;-80
2022/05/21 08:39:19;;;;;;;11.10;2.10;;;24.10;99.90;;;;;;5048181;28;20212;-80
2022/05/21 08:41:51;;;;;;;8.35;1.60;;;24.10;99.90;;;;;;5045753;28;20231;-80
2022/05/21 08:44:27;;;;;;;7.38;1.35;;;24.10;99.90;;;;;;5047399;28;20223;-80
2022/05/21 08:47:01;;;;;;;6.85;1.58;;;24.10;99.90;;;;;;5047973;28;20253;-80
2022/05/21 08:49:33;;;;;;;8.32;1.90;;;24.10;99.90;;;;;;5049452;28;20192;-80
2022/05/21 08:52:14;;;;;;;15.65;1.85;;;24.10;99.90;;;;;;5048815;28;20221;-80
2022/05/21 08:54:44;;;;;;;7.88;2.25;;;24.10;99.90;;;;;;5049551;28;20652;-80
2022/05/21 08:57:14;;;;;;;6.13;1.52;;;24.10;99.90;;;;;;5049267;28;20754;-80
2022/05/21 08:59:48;;;;;;;11.65;1.20;;;24.10;99.90;;;;;;5050044;28;20205;-80
2022/05/21 09:02:28;;;;;;;7.75;1.52;;;24.10;99.80;;;;;;5050067;28;20232;-80
2022/05/21 09:04:54;;;;;;;10.25;1.83;;;24.10;99.70;;;;;;5047252;28;20216;-80
2022/05/21 09:07:24;;;;;;;4.95;1.10;;;24.10;99.70;;;;;;5049116;28;20200;-80
2022/05/21 09:10:07;;;;;;;6.10;1.73;;;24.10;99.40;;;;;;5051331;28;20228;-80
2022/05/21 09:12:43;;;;;;;4.93;1.30;;;24.20;99.10;;;;;;5051503;28;20248;-80
2022/05/21 09:16:54;;;;;;;7.20;1.17;;;24.10;99.00;;;;;;5051807;28;20747;-80
2022/05/21 09:18:09;;;;;;;5.10;1.23;;;24.10;98.90;;;;;;5051070;28;20243;-80
2022/05/21 09:20:46;;;;;;;2.65;1.15;;;24.10;98.80;;;;;;5050548;28;20193;-80
2022/05/21 09:23:13;;;;;;;5.95;1.38;;;24.10;98.60;;;;;;5050429;28;20247;-80
2022/05/21 09:25:40;;;;;;;6.28;1.48;;;24.10;98.50;;;;;;5050456;28;20240;-80
2022/05/21 09:28:09;;;;;;;12.90;1.30;;;24.10;98.40;;;;;;5050766;28;20208;-79
2022/05/21 09:30:40;;;;;;;4.28;1.58;;;24.20;98.20;;;;;;5050943;28;20648;-80
2022/05/21 09:33:24;;;;;;;4.80;1.27;;;24.10;98.00;;;;;;5044971;28;20703;-80
2022/05/21 09:35:54;;;;;;;6.88;1.38;;;24.20;97.70;;;;;;5045564;28;20186;-79
2022/05/21 09:38:24;;;;;;;5.28;1.65;;;24.10;97.80;;;;;;5043445;28;20228;-79
2022/05/21 09:41:05;;;;;;;1.33;1.10;;;24.20;97.70;;;;;;5049489;28;20196;-79
2022/05/21 09:46:24;;;;;;;4.97;1.20;;;24.20;97.50;;;;;;5050602;28;20256;-80
2022/05/21 09:48:52;;;;;;;6.50;1.27;;;24.10;97.30;;;;;;5049422;28;20200;-80
2022/05/21 09:51:25;;;;;;;5.20;1.00;;;24.20;97.30;;;;;;5049382;28;20271;-80
2022/05/21 09:53:53;;;;;;;3.97;1.20;;;24.20;97.30;;;;;;5047703;28;20180;-80
2022/05/21 09:56:21;;;;;;;3.92;1.02;;;24.20;97.30;;;;;;5046630;28;20272;-80
2022/05/21 09:58:50;;;;;;;4.07;1.05;;;24.20;97.10;;;;;;5047341;28;20240;-80
2022/05/21 10:01:33;;;;;;;4.05;1.08;;;24.20;97.10;;;;;;5048662;28;20269;-79
2022/05/21 10:04:02;;;;;;;4.22;1.00;;;24.20;96.90;;;;;;5050413;28;20252;-80
2022/05/21 10:06:33;;;;;;;2.78;1.00;;;24.20;96.90;;;;;;5044223;28;20300;-79
2022/05/21 10:11:56;;;;;;;4.72;1.08;;;24.20;96.70;;;;;;5045062;28;20215;-80
2022/05/21 10:14:27;;;;;;;4.97;1.10;;;24.20;96.70;;;;;;5044153;28;20181;-80
2022/05/21 10:16:59;;;;;;;5.03;1.45;;;24.20;96.60;;;;;;5043673;28;20189;-80
2022/05/21 10:19:36;;;;;;;3.38;0.80;;;24.20;96.50;;;;;;5046072;28;20235;-80
2022/05/21 10:22:16;;;;;;;1.73;0.73;;;24.20;96.40;;;;;;5049019;28;20217;-80
2022/05/21 10:24:55;;;;;;;5.50;1.30;;;24.30;96.40;;;;;;5047044;28;20209;-79
2022/05/21 10:27:48;;;;;;;4.63;0.95;;;24.20;96.40;;;;;;5042195;28;20185;-79
2022/05/21 10:30:18;;;;;;;4.28;1.05;;;24.30;96.30;;;;;;5045710;28;20181;-79
2022/05/21 10:33:13;;;;;;;1.83;1.00;;;24.20;96.30;;;;;;5042280;28;20284;-79
2022/05/21 10:35:57;;;;;;;1.45;0.90;;;24.20;96.00;;;;;;5043491;28;20192;-79
2022/05/21 10:38:42;;;;;;;3.65;0.93;;;24.30;96.20;;;;;;5044586;28;20216;-79
2022/05/21 10:41:19;;;;;;;1.48;0.75;;;24.30;96.10;;;;;;5046262;28;20204;-79
2022/05/21 10:44:01;;;;;;;4.10;0.95;;;24.20;96.10;;;;;;5045166;28;20181;-79
2022/05/21 10:46:40;;;;;;;4.57;1.08;;;24.20;95.90;;;;;;5047720;28;20244;-80
2022/05/21 10:49:35;;;;;;;0.98;0.98;;;24.30;96.00;;;;;;5049354;28;20212;-80
2022/05/21 10:52:18;;;;;;;1.65;0.98;;;24.30;95.80;;;;;;5047627;28;20248;-80
2022/05/21 10:55:08;;;;;;;1.77;0.90;;;24.20;95.90;;;;;;5046452;28;20249;-79
2022/05/21 10:58:01;;;;;;;1.23;1.00;;;24.30;95.80;;;;;;5044408;28;20287;-79
2022/05/21 11:00:37;;;;;;;4.22;1.20;;;24.30;95.80;;;;;;5028239;28;20268;-80
2022/05/21 11:03:37;;;;;;;2.80;0.90;;;24.20;95.80;;;;;;5042925;28;20282;-80
2022/05/21 11:06:17;;;;;;;2.05;0.90;;;24.30;95.60;;;;;;5023747;28;20266;-80
2022/05/21 11:08:53;;;;;;;2.55;0.70;;;24.30;95.70;;;;;;5044970;28;20246;-80
2022/05/21 11:11:30;;;;;;;3.17;0.90;;;24.30;95.70;;;;;;5046768;28;20280;-80
2022/05/21 11:14:03;;;;;;;2.67;0.80;;;24.30;95.60;;;;;;5043095;28;20610;-80
2022/05/21 11:16:36;;;;;;;2.22;0.85;;;24.30;95.60;;;;;;5039247;28;20208;-77
2022/05/21 11:19:11;;;;;;;8.20;0.98;;;24.30;95.50;;;;;;5036977;28;20215;-77
2022/05/21 11:21:42;;;;;;;5.07;0.70;;;24.30;95.50;;;;;;5037071;28;20279;-78
2022/05/21 11:24:15;;;;;;;10.73;0.85;;;24.20;95.50;;;;;;5036951;28;20181;-78
2022/05/21 11:26:47;;;;;;;7.55;0.85;;;24.30;95.30;;;;;;5036873;28;20185;-78
2022/05/21 11:29:20;;;;;;;2.53;0.60;;;24.20;95.10;;;;;;5036581;28;20707;-76
2022/05/21 11:37:29;;;;;;;2.40;0.50;;;24.20;94.90;;;;;;5039154;28;20321;-78
2022/05/21 11:39:58;;;;;;;7.10;0.80;;;24.20;94.90;;;;;;5038376;28;20688;-77
2022/05/21 11:42:28;;;;;;;5.80;0.50;;;24.20;94.80;;;;;;5042264;28;20227;-80
2022/05/21 11:44:55;;;;;;;5.95;0.68;;;24.20;94.80;;;;;;5044778;28;20269;-81
2022/05/21 11:47:52;;;;;;;2.10;0.73;;;24.20;94.60;;;;;;5051324;28;20196;-81
2022/05/21 11:50:21;;;;;;;1.70;0.47;;;24.20;94.30;;;;;;5049527;28;20201;-81
2022/05/21 11:52:55;;;;;;;4.65;0.50;;;24.20;94.30;;;;;;5049005;28;20227;-81
2022/05/21 11:55:26;;;;;;;4.78;0.70;;;24.20;94.10;;;;;;5048612;28;20228;-81
2022/05/21 11:57:55;;;;;;;9.55;0.70;;;24.20;94.00;;;;;;5045725;28;20177;-81
2022/05/21 12:00:55;;;;;;;5.18;0.68;;;24.20;93.80;;;;;;5047147;28;20244;-81
2022/05/21 12:03:25;;;;;;;11.85;0.70;;;24.20;93.50;;;;;;5040529;28;20308;-77
2022/05/21 12:06:39;;;;;;;12.13;1.17;;;24.10;93.60;;;;;;5035838;28;20236;-77
2022/05/21 12:09:22;;;;;;;10.50;0.82;;;24.20;93.40;;;;;;5031045;28;20197;-77
2022/05/21 12:11:51;;;;;;;9.73;0.93;;;24.10;93.60;;;;;;5035719;28;20592;-77
2022/05/21 12:14:48;;;;;;;9.38;0.98;;;24.20;93.60;;;;;;5036003;28;20205;-77
2022/05/21 12:17:41;;;;;;;9.52;1.50;;;24.20;93.30;;;;;;5035852;28;20231;-77
2022/05/21 12:20:11;;;;;;;4.75;1.00;;;24.20;93.20;;;;;;5035864;28;20205;-77
2022/05/21 12:22:45;;;;;;;6.40;0.50;;;24.20;93.40;;;;;;5035719;28;20232;-77
2022/05/21 12:25:28;;;;;;;6.03;0.88;;;24.20;93.30;;;;;;5035843;28;20195;-77
2022/05/21 12:28:00;;;;;;;7.70;1.20;;;24.20;93.30;;;;;;5035307;28;20207;-77
2022/05/21 12:30:30;;;;;;;5.10;0.65;;;24.20;93.20;;;;;;5035457;28;20182;-77
2022/05/21 12:32:57;;;;;;;6.95;0.70;;;24.20;93.20;;;;;;5035591;28;20235;-77
2022/05/21 12:35:45;;;;;;;5.65;0.90;;;24.30;93.10;;;;;;5035803;28;20207;-77
2022/05/21 12:38:23;;;;;;;2.72;0.60;;;24.30;92.90;;;;;;5035136;28;20201;-77
2022/05/21 12:40:59;;;;;;;5.10;0.55;;;24.30;93.00;;;;;;5035257;28;20191;-77
2022/05/21 12:43:27;;;;;;;1.70;0.60;;;24.30;93.00;;;;;;5035424;28;20224;-76
2022/05/21 12:45:55;;;;;;;5.78;0.50;;;24.30;93.00;;;;;;5035115;28;20239;-76
2022/05/21 12:48:24;;;;;;;10.60;0.80;;;24.30;92.90;;;;;;5035554;28;20201;-76
2022/05/21 12:50:55;;;;;;;2.97;0.60;;;24.30;92.90;;;;;;5035334;28;20208;-76
2022/05/21 12:53:28;;;;;;;1.98;0.55;;;24.30;92.80;;;;;;5035239;28;20231;-77
2022/05/21 12:56:01;;;;;;;2.45;0.47;;;24.30;92.80;;;;;;5034986;28;20185;-76
2022/05/21 12:58:29;;;;;;;6.50;0.60;;;24.30;92.70;;;;;;5035065;28;20207;-76
2022/05/21 13:00:57;;;;;;;4.60;0.50;;;24.30;92.70;;;;;;5035066;28;20211;-76
2022/05/21 13:03:26;;;;;;;1.20;0.55;;;24.30;92.50;;;;;;5034621;28;20610;-76
2022/05/21 13:05:56;;;;;;;3.28;0.50;;;24.40;92.60;;;;;;5035121;28;20201;-76
2022/05/21 13:08:24;;;;;;;3.33;0.57;;;24.30;92.40;;;;;;5035891;28;20291;-77
2022/05/21 13:10:59;;;;;;;4.20;0.95;;;24.30;92.40;;;;;;5035017;28;20207;-77
2022/05/21 13:13:27;;;;;;;3.33;0.40;;;24.40;92.50;;;;;;5034883;28;20224;-77
2022/05/21 13:15:59;;;;;;;2.72;0.55;;;24.40;92.50;;;;;;5034774;28;20300;-77
2022/05/21 13:18:44;;;;;;;2.47;0.40;;;24.40;92.50;;;;;;5034748;28;20224;-77
2022/05/21 13:21:20;;;;;;;2.05;0.52;;;24.40;92.50;;;;;;5034739;28;20207;-77
2022/05/21 13:24:03;;;;;;;3.03;0.57;;;24.40;92.50;;;;;;5034729;28;20188;-77
2022/05/21 13:26:34;;;;;;;0.60;0.40;;;24.40;92.50;;;;;;5034832;28;20185;-77
2022/05/21 13:29:17;;;;;;;3.75;0.63;;;24.40;92.50;;;;;;5034233;28;20181;-77